Time;durP1;ratioP1;P1;durP2;ratioP2;P2;SDS_P1;SDS_P2;PMS_P1;PMS_P2;Temp;Humidity;BMP_temperature;BMP_pressure;BME280_temperature;BME280_humidity;BME280_pressure;Samples;Min_cycle;Max_cycle;Signal;HPM_P1;HPM_P2
2021/11/17 02:25:51;;;;;;;111.60;36.10;;;;;;;5.92;98.58;101920.41;5034659;28;20067;-70
2021/11/17 02:28:26;;;;;;;112.28;36.40;;;;;;;5.96;97.81;101915.56;5037053;28;20095;-70
2021/11/17 02:31:04;;;;;;;115.18;35.53;;;;;;;5.85;97.90;101924.81;5039242;28;20024;-70
2021/11/17 02:33:41;;;;;;;112.05;34.90;;;;;;;5.83;97.90;101916.22;5042612;28;20037;-70
2021/11/17 02:36:13;;;;;;;102.57;33.92;;;;;;;5.81;98.26;101917.41;5034228;28;20035;-71
2021/11/17 02:38:59;;;;;;;113.20;35.45;;;;;;;5.79;98.16;101895.50;5034852;28;20468;-70
2021/11/17 02:41:54;;;;;;;111.72;35.22;;;;;;;5.83;98.01;101912.72;5019800;28;20099;-70
2021/11/17 02:44:59;;;;;;;97.57;32.70;;;;;;;5.83;98.24;101912.72;5009383;28;20037;-70
2021/11/17 02:47:46;;;;;;;109.30;33.50;;;;;;;5.84;98.13;101895.75;5023145;28;20186;-70
2021/11/17 02:50:36;;;;;;;99.45;31.23;;;;;;;5.85;98.01;101898.22;5033026;28;20518;-70
2021/11/17 02:53:11;;;;;;;99.45;34.47;;;;;;;5.82;98.12;101892.47;5011760;28;20106;-71
2021/11/17 02:56:11;;;;;;;105.65;34.53;;;;;;;5.82;97.63;101889.81;5040590;28;20098;-70
2021/11/17 02:58:43;;;;;;;98.82;33.55;;;;;;;5.87;97.14;101892.72;5033433;28;20044;-70
2021/11/17 03:01:21;;;;;;;93.93;31.50;;;;;;;5.90;97.55;101890.53;5035836;28;20028;-70
2021/11/17 03:04:02;;;;;;;107.57;32.33;;;;;;;5.88;97.05;101892.53;5016248;28;20072;-71
2021/11/17 03:06:41;;;;;;;90.68;31.42;;;;;;;5.87;97.12;101896.19;5036376;28;20090;-70
2021/11/17 03:09:28;;;;;;;99.38;31.83;;;;;;;5.83;96.88;101899.44;5016123;28;20039;-70
2021/11/17 03:12:11;;;;;;;89.75;31.48;;;;;;;5.93;96.38;101900.00;5035556;28;20071;-70
2021/11/17 03:15:07;;;;;;;84.90;30.38;;;;;;;5.83;96.27;101900.25;5053643;28;20035;-70
2021/11/17 03:17:38;;;;;;;96.03;33.25;;;;;;;5.85;96.40;101898.22;5033597;28;20120;-70
2021/11/17 03:20:09;;;;;;;95.63;30.85;;;;;;;5.85;96.95;101894.75;5035398;28;20025;-70
2021/11/17 03:22:44;;;;;;;75.88;26.27;;;;;;;5.75;96.09;101898.56;5036781;28;20070;-70
2021/11/17 03:25:13;;;;;;;;;;;;;;;5.60;94.58;101891.63;5050975;28;20021;-70
2021/11/17 03:28:10;;;;;;;55.47;19.00;;;;;;;5.62;94.62;101893.09;5033329;28;19917;-70
2021/11/17 03:30:45;;;;;;;61.00;21.77;;;;;;;5.47;94.04;101889.63;5016999;28;20034;-70
2021/11/17 03:33:25;;;;;;;61.97;22.95;;;;;;;5.60;94.63;101891.63;5049708;28;20083;-70
2021/11/17 03:36:07;;;;;;;61.88;22.25;;;;;;;5.67;94.66;101893.34;5033037;28;20028;-70
2021/11/17 03:38:49;;;;;;;63.78;24.05;;;;;;;5.60;94.43;101891.63;5043296;28;20025;-70
2021/11/17 03:41:58;;;;;;;69.05;24.08;;;;;;;5.55;94.83;101892.16;5032989;28;20036;-70
2021/11/17 03:44:49;;;;;;;67.60;24.73;;;;;;;5.56;94.93;101896.47;5022033;28;20036;-70
2021/11/17 03:47:59;;;;;;;64.68;24.35;;;;;;;5.64;95.02;101900.88;5037268;28;20644;-70
2021/11/17 03:50:34;;;;;;;61.17;23.52;;;;;;;5.63;94.56;101897.38;4992921;28;20055;-70
2021/11/17 03:53:25;;;;;;;60.22;22.88;;;;;;;5.49;94.08;101892.91;4990954;28;20044;-70
2021/11/17 03:56:10;;;;;;;55.60;22.70;;;;;;;5.46;94.16;101891.47;5014939;28;20497;-70
2021/11/17 03:58:35;;;;;;;;;;;;;;;5.35;93.52;101899.06;5036966;28;20080;-70
2021/11/17 04:01:11;;;;;;;48.80;18.00;;;;;;;5.52;93.64;101891.72;5029123;28;19925;-71
2021/11/17 04:03:58;;;;;;;43.83;16.65;;;;;;;5.44;92.98;101892.66;5036211;28;20097;-70
2021/11/17 04:06:32;;;;;;;33.60;14.65;;;;;;;5.23;91.64;101884.63;5040263;28;20112;-70
2021/11/17 04:08:57;;;;;;;39.25;16.58;;;;;;;5.28;92.12;101891.03;5039098;28;20066;-70
2021/11/17 04:11:23;;;;;;;32.80;13.80;;;;;;;5.36;91.95;101892.75;5037949;28;20467;-70
2021/11/17 04:14:13;;;;;;;34.78;13.45;;;;;;;5.06;91.74;101898.09;5052734;28;20039;-70
2021/11/17 04:16:57;;;;;;;34.20;14.35;;;;;;;5.13;91.52;101908.81;5036293;28;20033;-70
2021/11/17 04:19:34;;;;;;;25.23;11.57;;;;;;;5.07;91.14;101909.56;5036660;28;20577;-70
2021/11/17 04:22:13;;;;;;;30.65;12.55;;;;;;;5.06;90.51;101899.94;5039628;28;20390;-70
2021/11/17 04:24:54;;;;;;;22.70;9.55;;;;;;;5.08;90.54;101903.22;5036906;28;20086;-70
2021/11/17 04:27:34;;;;;;;26.48;11.25;;;;;;;4.99;89.91;101907.78;5038155;28;20028;-70
2021/11/17 04:30:14;;;;;;;26.08;11.00;;;;;;;4.96;89.90;101905.50;5034362;28;20371;-70
2021/11/17 04:33:02;;;;;;;25.05;10.40;;;;;;;5.02;89.75;101909.25;5049988;28;20025;-70
2021/11/17 04:35:49;;;;;;;20.83;9.80;;;;;;;4.94;89.22;101902.22;5042116;28;20029;-70
2021/11/17 04:38:18;;;;;;;19.08;8.82;;;;;;;4.94;88.89;101891.59;5036933;28;20048;-70
2021/11/17 04:41:08;;;;;;;27.40;10.25;;;;;;;4.84;88.53;101896.34;5049450;28;20497;-70
2021/11/17 04:44:07;;;;;;;20.63;9.13;;;;;;;5.01;88.76;101892.50;5040696;28;20031;-70
2021/11/17 04:46:45;;;;;;;21.20;9.82;;;;;;;4.95;88.23;101890.59;5052898;28;20098;-70
2021/11/17 04:49:29;;;;;;;23.13;8.95;;;;;;;4.78;87.88;101900.56;5047187;28;20029;-70
2021/11/17 04:52:10;;;;;;;16.95;10.13;;;;;;;4.84;88.09;101897.16;5027161;28;20036;-70
2021/11/17 04:54:36;;;;;;;23.40;10.10;;;;;;;5.01;88.36;101895.16;5036566;28;20419;-70
2021/11/17 04:57:08;;;;;;;23.63;9.85;;;;;;;5.02;88.05;101899.47;5041883;28;20036;-69
2021/11/17 04:59:58;;;;;;;20.35;10.02;;;;;;;4.97;87.33;101898.38;5030240;28;20035;-70
2021/11/17 05:03:03;;;;;;;20.45;10.50;;;;;;;5.07;87.15;101898.94;5038763;28;20115;-70
2021/11/17 05:05:50;;;;;;;18.67;9.07;;;;;;;5.06;86.28;101898.09;5023749;28;20024;-70
2021/11/17 05:08:38;;;;;;;18.23;9.13;;;;;;;5.01;85.84;101903.13;5037344;28;21775;-70
2021/11/17 05:11:03;;;;;;;19.10;9.95;;;;;;;4.95;85.68;101893.25;5022312;28;20078;-71
2021/11/17 05:13:42;;;;;;;20.50;10.30;;;;;;;4.96;85.79;101892.22;5041528;28;20119;-70
2021/11/17 05:16:40;;;;;;;21.33;9.43;;;;;;;5.01;85.93;101892.50;5023599;28;20039;-70
2021/11/17 05:19:11;;;;;;;20.70;9.35;;;;;;;5.05;85.66;101890.31;5030181;28;20643;-70
2021/11/17 05:21:52;;;;;;;19.73;9.57;;;;;;;4.90;85.18;101885.00;5040116;28;20380;-70
2021/11/17 05:24:27;;;;;;;15.85;8.30;;;;;;;4.76;85.17;101888.47;5048063;28;20101;-70
2021/11/17 05:27:20;;;;;;;12.40;7.22;;;;;;;4.81;85.39;101888.75;5026775;28;20106;-70
2021/11/17 05:30:22;;;;;;;11.65;5.82;;;;;;;4.82;84.89;101882.41;5033630;28;20033;-70
2021/11/17 05:33:06;;;;;;;8.70;5.25;;;;;;;4.83;84.34;101873.44;5015832;28;20164;-70
2021/11/17 05:35:59;;;;;;;10.82;5.35;;;;;;;4.77;84.17;101871.53;5038983;28;20372;-69
2021/11/17 05:38:31;;;;;;;8.13;4.80;;;;;;;4.78;84.03;101881.16;5036327;28;20148;-70
2021/11/17 05:41:06;;;;;;;10.77;5.63;;;;;;;4.84;83.41;101877.75;5033016;28;20044;-70
2021/11/17 05:43:56;;;;;;;10.38;5.47;;;;;;;4.78;82.68;101881.16;5047284;28;20135;-70
2021/11/17 05:46:27;;;;;;;11.52;5.43;;;;;;;4.81;83.20;101881.59;5046250;28;20033;-70
2021/11/17 05:49:32;;;;;;;11.25;5.68;;;;;;;4.84;83.08;101875.09;5039663;28;20517;-70
2021/11/17 05:52:06;;;;;;;12.45;7.00;;;;;;;4.91;83.45;101881.34;5053692;28;20065;-74
2021/11/17 05:55:06;;;;;;;13.15;7.35;;;;;;;4.73;83.39;101888.84;5047340;28;20623;-75
2021/11/17 05:57:35;;;;;;;12.50;6.88;;;;;;;4.93;83.35;101886.47;5032277;28;20214;-73
2021/11/17 06:00:31;;;;;;;13.05;7.60;;;;;;;4.93;83.57;101884.63;5044520;28;20021;-72
2021/11/17 06:03:04;;;;;;;13.23;7.43;;;;;;;5.02;83.68;101896.78;5045894;28;20111;-73
2021/11/17 06:05:29;;;;;;;17.23;7.25;;;;;;;4.92;83.59;101893.59;5039162;28;20029;-73
2021/11/17 06:07:55;;;;;;;15.00;7.50;;;;;;;5.01;83.70;101897.81;5048907;28;20025;-72
2021/11/17 06:10:26;;;;;;;17.10;7.95;;;;;;;4.91;83.31;101901.75;5048014;28;20410;-74
2021/11/17 06:12:52;;;;;;;15.52;7.82;;;;;;;4.90;83.83;101900.94;5046405;28;20064;-72
2021/11/17 06:15:19;;;;;;;17.70;7.85;;;;;;;4.83;84.00;101903.47;5047179;28;20470;-72
2021/11/17 06:17:47;;;;;;;15.52;7.78;;;;;;;4.83;84.25;101897.34;5046881;28;20028;-72
2021/11/17 06:20:17;;;;;;;13.02;6.47;;;;;;;4.70;84.13;101907.78;5043993;28;20032;-72
2021/11/17 06:22:47;;;;;;;10.82;5.43;;;;;;;4.70;83.84;101903.31;5050965;28;20029;-72
2021/11/17 06:25:14;;;;;;;15.27;6.72;;;;;;;4.67;83.53;101902.81;5048530;28;20060;-71
2021/11/17 06:27:46;;;;;;;8.10;4.43;;;;;;;4.57;83.08;101913.72;5044023;28;20021;-71
2021/11/17 06:30:14;;;;;;;10.63;4.78;;;;;;;4.60;82.86;101908.03;5045371;28;20103;-73
2021/11/17 06:32:40;;;;;;;10.30;4.53;;;;;;;4.52;83.06;101910.78;5051864;28;20104;-71
2021/11/17 06:35:08;;;;;;;9.32;5.30;;;;;;;4.55;82.77;101910.41;5047570;28;20430;-72
2021/11/17 06:37:34;;;;;;;9.15;4.53;;;;;;;4.50;82.77;101910.97;5046843;28;20086;-71
2021/11/17 06:40:01;;;;;;;8.25;4.50;;;;;;;4.61;82.96;101915.00;5048906;28;20449;-72
2021/11/17 06:42:43;;;;;;;8.48;4.55;;;;;;;4.57;82.95;101919.00;5045489;28;20034;-72
2021/11/17 06:45:16;;;;;;;7.88;4.65;;;;;;;4.51;83.29;101915.25;5045095;28;20025;-72
2021/11/17 06:47:42;;;;;;;10.18;4.75;;;;;;;4.52;83.32;101916.91;5049674;28;20025;-71
2021/11/17 06:50:11;;;;;;;7.18;4.43;;;;;;;4.51;82.46;101914.44;5045546;28;20122;-71
2021/11/17 06:52:36;;;;;;;7.85;4.32;;;;;;;4.47;82.78;101911.28;5045050;28;20268;-71
2021/11/17 06:55:03;;;;;;;7.60;3.95;;;;;;;4.54;82.69;101906.09;5047531;28;20022;-72
2021/11/17 06:57:28;;;;;;;6.80;3.60;;;;;;;4.49;82.54;101905.84;5046909;28;20032;-72
2021/11/17 06:59:54;;;;;;;7.30;3.40;;;;;;;4.58;82.18;101910.03;5050725;28;20120;-72
2021/11/17 07:02:20;;;;;;;6.30;3.55;;;;;;;4.45;82.71;101915.97;5044605;28;20017;-71
2021/11/17 07:04:45;;;;;;;6.50;4.07;;;;;;;4.43;83.37;101919.78;5041482;28;20024;-72
2021/11/17 07:07:15;;;;;;;6.70;3.45;;;;;;;4.36;83.15;101918.88;5047712;28;20028;-72
2021/11/17 07:09:41;;;;;;;6.60;3.75;;;;;;;4.43;82.82;101920.63;5050420;28;20494;-72
2021/11/17 07:12:08;;;;;;;7.50;3.92;;;;;;;4.35;83.11;101926.00;5043552;28;20482;-72
2021/11/17 07:14:34;;;;;;;9.10;3.50;;;;;;;4.26;83.68;101921.75;5050831;28;20028;-72
2021/11/17 07:16:59;;;;;;;8.02;4.75;;;;;;;4.33;84.15;101927.19;5048123;28;20083;-71
2021/11/17 07:19:25;;;;;;;7.28;4.25;;;;;;;4.23;84.86;101932.72;5048151;28;20108;-71
2021/11/17 07:21:53;;;;;;;6.88;4.38;;;;;;;4.13;84.85;101937.44;5045136;28;20403;-72
2021/11/17 07:24:19;;;;;;;8.77;3.88;;;;;;;4.03;86.03;101936.84;5052086;28;20035;-73
2021/11/17 07:26:45;;;;;;;6.88;4.32;;;;;;;4.14;85.47;101929.31;5051839;28;20025;-71
2021/11/17 07:29:11;;;;;;;10.40;4.35;;;;;;;4.14;85.45;101933.81;5046974;28;20173;-72
2021/11/17 07:31:37;;;;;;;17.67;5.72;;;;;;;4.26;85.53;101932.38;5048332;28;20029;-73
2021/11/17 07:34:02;;;;;;;25.55;6.45;;;;;;;4.33;85.88;101935.97;5044755;28;20055;-72
2021/11/17 07:36:28;;;;;;;27.88;6.55;;;;;;;4.31;86.31;101937.13;5046447;28;20041;-72
2021/11/17 07:38:54;;;;;;;44.08;7.85;;;;;;;4.38;85.82;101930.94;5047168;28;20035;-72
2021/11/17 07:41:20;;;;;;;29.17;7.43;;;;;;;4.32;86.54;101929.03;5051209;28;20107;-72
2021/11/17 07:43:45;;;;;;;11.85;5.38;;;;;;;4.18;87.63;101935.91;5047980;28;20036;-71
2021/11/17 07:46:11;;;;;;;13.40;5.35;;;;;;;4.15;88.88;101928.31;5048509;28;20021;-73
2021/11/17 07:48:36;;;;;;;13.07;5.80;;;;;;;4.15;88.91;101920.38;5048115;28;20037;-72
2021/11/17 07:51:02;;;;;;;13.70;6.18;;;;;;;4.16;90.15;101915.88;5049713;28;20383;-72
2021/11/17 07:53:29;;;;;;;15.73;5.90;;;;;;;4.25;90.39;101920.09;5047190;28;20032;-73
2021/11/17 07:55:56;;;;;;;20.75;6.43;;;;;;;4.34;90.22;101928.84;5050340;28;20029;-72
2021/11/17 07:58:24;;;;;;;20.95;6.38;;;;;;;4.41;89.72;101919.97;5048805;28;20039;-72
2021/11/17 08:00:53;;;;;;;20.85;7.53;;;;;;;4.18;91.74;101929.78;5046599;28;20025;-72
2021/11/17 08:03:21;;;;;;;22.45;7.80;;;;;;;4.38;90.81;101935.44;5057413;28;20028;-72
2021/11/17 08:05:50;;;;;;;26.08;7.95;;;;;;;4.48;90.13;101926.22;5053223;28;20025;-72
2021/11/17 08:08:17;;;;;;;17.92;6.93;;;;;;;4.47;89.98;101935.19;5050993;28;20033;-72
2021/11/17 08:10:44;;;;;;;17.73;7.32;;;;;;;4.58;89.58;101936.59;5047750;28;20025;-72
2021/11/17 08:13:10;;;;;;;20.63;7.05;;;;;;;4.47;90.55;101929.03;5050530;28;20029;-71
2021/11/17 08:15:36;;;;;;;13.38;6.22;;;;;;;4.54;89.90;101920.22;5050853;28;20179;-72
2021/11/17 08:18:01;;;;;;;15.43;5.90;;;;;;;4.59;89.89;101926.78;5044600;28;20501;-71
2021/11/17 08:20:27;;;;;;;11.95;5.90;;;;;;;4.59;90.15;101926.78;5052739;28;20028;-71
2021/11/17 08:22:55;;;;;;;9.73;5.40;;;;;;;4.50;89.84;101924.22;5044797;28;20383;-72
2021/11/17 08:25:23;;;;;;;12.98;6.03;;;;;;;4.63;90.15;101920.94;5044031;28;20457;-71
2021/11/17 08:27:50;;;;;;;13.68;6.38;;;;;;;4.65;89.18;101920.75;5047761;28;20574;-72
2021/11/17 08:30:18;;;;;;;10.77;5.13;;;;;;;4.63;89.81;101928.06;5048126;28;20025;-71
2021/11/17 08:32:45;;;;;;;14.90;5.95;;;;;;;4.68;89.21;101915.94;5044824;28;20077;-72
2021/11/17 08:35:15;;;;;;;16.13;7.85;;;;;;;4.64;89.62;101925.25;5052000;28;20168;-71
2021/11/17 08:37:41;;;;;;;13.98;5.93;;;;;;;4.66;89.58;101920.56;5049825;28;20233;-71
2021/11/17 08:40:14;;;;;;;14.10;6.88;;;;;;;4.59;89.85;101917.00;5047130;28;20560;-72
2021/11/17 08:42:41;;;;;;;16.33;7.93;;;;;;;4.60;90.11;101913.34;5050334;28;20021;-71
2021/11/17 08:45:08;;;;;;;17.60;7.35;;;;;;;4.61;90.17;101899.06;5049159;28;20434;-72
2021/11/17 08:47:34;;;;;;;13.27;6.30;;;;;;;4.63;90.33;101901.53;5048717;28;20032;-72
2021/11/17 08:50:00;;;;;;;12.82;6.00;;;;;;;4.61;90.58;101896.41;5049515;28;20032;-73
2021/11/17 08:52:26;;;;;;;15.18;6.00;;;;;;;4.64;90.87;101901.34;5052330;28;20029;-72
2021/11/17 08:54:53;;;;;;;12.90;6.18;;;;;;;4.69;90.83;101906.97;5038633;28;20491;-72
2021/11/17 08:57:19;;;;;;;12.55;6.18;;;;;;;4.70;91.01;101907.78;5043152;28;20029;-73
2021/11/17 08:59:46;;;;;;;11.55;5.60;;;;;;;4.67;91.11;101913.44;5049914;28;20491;-73
2021/11/17 09:02:13;;;;;;;10.30;5.32;;;;;;;4.74;90.84;101909.91;5045848;28;20135;-72
2021/11/17 09:04:39;;;;;;;14.43;6.00;;;;;;;4.78;90.71;101911.16;5044198;28;20096;-72
2021/11/17 09:07:05;;;;;;;13.07;6.13;;;;;;;4.79;90.93;101917.31;5041609;28;20041;-72
2021/11/17 09:09:33;;;;;;;12.30;6.15;;;;;;;4.84;90.84;101914.94;5046486;28;20060;-73
2021/11/17 09:11:59;;;;;;;13.57;6.28;;;;;;;4.83;90.98;101916.75;5047334;28;20056;-72
2021/11/17 09:14:24;;;;;;;15.52;6.75;;;;;;;4.71;91.62;101906.78;5040332;28;20057;-72
2021/11/17 09:16:50;;;;;;;13.70;6.05;;;;;;;4.73;91.63;101905.59;5052099;28;20271;-71
2021/11/17 09:19:17;;;;;;;12.70;6.00;;;;;;;4.76;91.68;101912.38;5054763;28;20029;-71
2021/11/17 09:21:45;;;;;;;13.75;6.32;;;;;;;4.79;91.57;101910.16;5048749;28;20037;-71
2021/11/17 09:24:15;;;;;;;12.82;6.05;;;;;;;4.82;91.91;101912.44;5035622;28;20070;-71
2021/11/17 09:26:41;;;;;;;14.20;6.40;;;;;;;4.80;91.90;101911.81;5046376;28;20039;-72
2021/11/17 09:29:07;;;;;;;12.80;6.38;;;;;;;4.88;91.42;101910.91;5042021;28;20021;-72
2021/11/17 09:31:34;;;;;;;13.23;6.93;;;;;;;4.90;91.15;101910.75;5042467;28;20023;-72
2021/11/17 09:34:01;;;;;;;17.40;6.90;;;;;;;4.91;91.40;101909.72;5048731;28;20414;-71
2021/11/17 09:36:29;;;;;;;13.18;6.55;;;;;;;4.80;91.81;101903.03;5053580;28;20467;-72
2021/11/17 09:38:56;;;;;;;13.43;6.78;;;;;;;4.82;91.15;101906.31;5046715;28;20532;-71
2021/11/17 09:41:49;;;;;;;14.60;6.88;;;;;;;4.83;91.10;101908.78;5049261;28;20112;-71
2021/11/17 09:44:24;;;;;;;14.43;6.10;;;;;;;4.85;91.33;101903.31;5039280;28;20033;-72
2021/11/17 09:46:51;;;;;;;11.38;5.80;;;;;;;4.74;90.13;101901.09;5053499;28;20405;-71
2021/11/17 09:49:29;;;;;;;11.25;6.70;;;;;;;4.65;89.46;101910.13;5053784;28;20017;-72
2021/11/17 09:51:58;;;;;;;13.25;6.55;;;;;;;4.54;89.22;101906.09;5045210;28;20052;-72
2021/11/17 09:54:30;;;;;;;11.40;5.95;;;;;;;4.65;89.79;101896.88;5041439;28;20025;-72
2021/11/17 09:57:06;;;;;;;12.10;6.68;;;;;;;4.61;90.15;101898.25;5044604;28;20017;-72
2021/11/17 09:59:38;;;;;;;13.63;6.72;;;;;;;4.62;89.88;101889.28;5042111;28;20113;-72
2021/11/17 10:02:13;;;;;;;16.23;7.90;;;;;;;4.54;90.21;101893.66;5044721;28;20021;-73
2021/11/17 10:04:46;;;;;;;18.83;6.72;;;;;;;4.53;90.18;101893.84;5036207;28;20491;-71
2021/11/17 10:13:25;;;;;;;15.68;6.57;;;;;;;4.62;88.99;101889.28;5055450;28;20543;-72
2021/11/17 10:15:53;;;;;;;12.77;6.43;;;;;;;4.59;89.32;101877.19;5039623;28;20040;-72
2021/11/17 10:18:41;;;;;;;12.20;5.85;;;;;;;4.72;89.23;101873.91;5049882;28;20033;-72
2021/11/17 10:21:12;;;;;;;13.20;5.90;;;;;;;4.69;88.80;101877.75;5041914;28;20040;-72
2021/11/17 10:23:43;;;;;;;14.00;5.68;;;;;;;4.82;88.56;101866.50;5047622;28;20423;-72
2021/11/17 10:26:13;;;;;;;14.43;6.22;;;;;;;4.90;88.65;101866.41;5043008;28;20029;-71
2021/11/17 10:29:02;;;;;;;12.77;5.88;;;;;;;4.80;88.31;101865.84;5040072;28;20371;-73
2021/11/17 10:31:51;;;;;;;21.63;6.72;;;;;;;4.92;88.51;101874.19;5044322;28;20120;-71
2021/11/17 10:34:21;;;;;;;15.38;6.85;;;;;;;4.77;88.29;101869.69;5049149;28;20116;-71
2021/11/17 10:36:52;;;;;;;11.48;5.97;;;;;;;4.88;88.14;101875.56;5046574;28;20033;-71
2021/11/17 10:39:34;;;;;;;12.98;6.20;;;;;;;4.90;87.73;101873.56;5045395;28;20111;-71
2021/11/17 10:42:07;;;;;;;15.77;7.05;;;;;;;4.69;87.78;101868.97;5045844;28;20482;-71
2021/11/17 10:44:36;;;;;;;15.07;7.25;;;;;;;4.87;88.10;101864.13;5046031;28;20021;-73
2021/11/17 10:47:30;;;;;;;14.35;6.90;;;;;;;4.77;88.29;101860.91;5059521;28;20268;-73
2021/11/17 10:50:19;;;;;;;13.73;6.83;;;;;;;4.87;88.07;101858.81;5043027;28;20129;-72
2021/11/17 10:52:55;;;;;;;14.38;7.30;;;;;;;4.94;88.25;101850.94;5041512;28;20760;-72
2021/11/17 10:55:39;;;;;;;13.55;6.75;;;;;;;4.93;87.82;101849.28;5040488;28;20036;-71
2021/11/17 10:58:09;;;;;;;11.38;6.53;;;;;;;4.96;88.07;101848.91;5046570;28;20049;-73
2021/11/17 11:00:41;;;;;;;16.05;6.65;;;;;;;4.99;87.79;101851.19;5042824;28;20024;-72
2021/11/17 11:03:10;;;;;;;12.65;6.65;;;;;;;5.12;87.57;101846.88;5049050;28;20482;-72
2021/11/17 11:06:11;;;;;;;16.17;7.80;;;;;;;5.02;87.48;101842.84;5052529;28;20032;-72
2021/11/17 11:08:43;;;;;;;14.20;6.30;;;;;;;5.02;88.10;101842.84;5040554;28;20031;-72
2021/11/17 11:11:10;;;;;;;15.00;8.00;;;;;;;4.94;87.98;101845.63;5044368;28;20026;-71
2021/11/17 11:14:10;;;;;;;14.65;7.13;;;;;;;5.02;88.31;101838.38;5044953;28;20479;-72
2021/11/17 11:16:48;;;;;;;14.25;7.30;;;;;;;4.91;88.80;101838.03;5038042;28;20319;-71
2021/11/17 11:19:14;;;;;;;14.50;7.05;;;;;;;5.02;89.01;101843.69;5050126;28;20255;-71
2021/11/17 11:21:46;;;;;;;16.70;8.23;;;;;;;5.06;89.40;101846.81;5047789;28;20040;-71
2021/11/17 11:24:13;;;;;;;14.07;7.63;;;;;;;5.07;89.58;101840.50;5055654;28;20083;-71
2021/11/17 11:27:13;;;;;;;16.70;7.55;;;;;;;5.10;89.03;101840.13;5048987;28;20037;-71
2021/11/17 11:30:09;;;;;;;14.95;7.07;;;;;;;5.16;89.22;101834.03;5039938;28;20443;-71
2021/11/17 11:32:34;;;;;;;16.38;7.95;;;;;;;5.20;88.88;101845.13;5044739;28;20036;-72
2021/11/17 11:35:00;;;;;;;15.05;7.88;;;;;;;5.21;89.05;101839.66;5046962;28;20024;-73
2021/11/17 11:37:25;;;;;;;17.85;7.90;;;;;;;5.17;89.06;101830.38;5049719;28;20028;-72
2021/11/17 11:39:53;;;;;;;17.33;8.10;;;;;;;5.27;89.26;101838.91;5055401;28;20032;-72
2021/11/17 11:42:27;;;;;;;17.40;8.07;;;;;;;5.18;89.46;101844.50;5048960;28;20029;-72
2021/11/17 11:45:07;;;;;;;15.80;7.63;;;;;;;5.23;90.12;101844.78;5055114;28;20020;-72
2021/11/17 11:47:57;;;;;;;15.18;7.53;;;;;;;5.08;90.31;101832.34;5048520;28;20026;-72
2021/11/17 11:50:32;;;;;;;15.30;7.18;;;;;;;5.05;90.18;101835.38;5043505;28;20025;-72
2021/11/17 11:53:06;;;;;;;16.92;9.18;;;;;;;5.05;90.54;101845.16;5056707;28;20028;-71
2021/11/17 11:56:30;;;;;;;18.25;8.02;;;;;;;4.88;91.73;101838.41;5048579;28;20155;-72
2021/11/17 11:59:09;;;;;;;15.93;7.32;;;;;;;5.06;91.34;101847.63;5040481;28;20422;-73
2021/11/17 12:01:36;;;;;;;20.58;8.13;;;;;;;5.11;91.12;101847.91;5054606;28;20382;-74
2021/11/17 12:04:10;;;;;;;17.42;8.20;;;;;;;5.06;91.15;101844.97;5056272;28;20035;-72
2021/11/17 12:06:47;;;;;;;17.67;8.48;;;;;;;5.02;91.59;101841.03;5045876;28;20544;-72
2021/11/17 12:09:24;;;;;;;18.73;8.30;;;;;;;5.07;91.31;101846.63;5054004;28;20029;-71
2021/11/17 12:12:18;;;;;;;17.20;8.30;;;;;;;4.97;92.03;101838.09;5046752;28;20462;-72
2021/11/17 12:14:49;;;;;;;16.90;8.52;;;;;;;5.00;92.37;101837.72;5044685;28;20122;-72
2021/11/17 12:17:26;;;;;;;20.77;9.35;;;;;;;4.94;92.45;101830.50;5042727;28;20025;-71
2021/11/17 12:19:55;;;;;;;20.00;9.32;;;;;;;4.99;92.67;101833.44;5052409;28;20051;-72
2021/11/17 12:22:39;;;;;;;21.33;8.45;;;;;;;5.02;92.80;101827.75;5042956;28;20112;-73
2021/11/17 12:25:19;;;;;;;18.63;8.35;;;;;;;4.99;92.59;101829.94;5037609;28;20021;-71
2021/11/17 12:27:48;;;;;;;17.23;8.38;;;;;;;4.98;92.82;101837.09;5049123;28;20094;-72
2021/11/17 12:30:32;;;;;;;18.10;7.55;;;;;;;4.92;93.25;101837.84;5041613;28;20051;-72
2021/11/17 12:33:11;;;;;;;18.52;8.15;;;;;;;4.92;94.01;101835.19;5043420;28;20044;-72
2021/11/17 12:35:42;;;;;;;17.05;8.75;;;;;;;4.89;94.64;101835.56;5047765;28;20439;-72
2021/11/17 12:38:13;;;;;;;14.48;6.80;;;;;;;4.87;94.30;101824.31;5044643;28;20036;-71
2021/11/17 12:40:52;;;;;;;14.13;7.75;;;;;;;4.75;95.09;101823.09;5049118;28;20032;-71
2021/11/17 12:43:42;;;;;;;14.80;8.05;;;;;;;4.84;95.11;101820.16;5039788;28;20560;-72
2021/11/17 12:46:31;;;;;;;15.40;7.15;;;;;;;4.86;94.70;101822.66;5036941;28;20037;-72
2021/11/17 12:49:03;;;;;;;14.98;7.78;;;;;;;4.95;94.67;101805.59;5048504;28;20026;-72
2021/11/17 12:51:33;;;;;;;16.40;7.90;;;;;;;5.04;93.74;101804.50;5047696;28;20152;-73
2021/11/17 12:54:06;;;;;;;15.07;7.03;;;;;;;4.95;93.72;101805.59;5051613;28;20123;-72
2021/11/17 12:56:35;;;;;;;17.42;8.88;;;;;;;4.97;93.74;101803.56;5051166;28;20044;-72
2021/11/17 12:59:36;;;;;;;16.00;7.78;;;;;;;5.04;93.42;101799.19;5048994;28;20021;-72
2021/11/17 13:02:29;;;;;;;14.82;7.63;;;;;;;5.11;93.33;101800.06;5017882;28;20227;-71
2021/11/17 13:05:15;;;;;;;24.00;9.05;;;;;;;5.04;93.22;101787.75;5044086;28;20450;-72
2021/11/17 13:07:47;;;;;;;16.20;7.72;;;;;;;5.18;92.81;101794.84;5032396;28;20029;-71
2021/11/17 13:10:43;;;;;;;13.82;7.47;;;;;;;5.09;92.14;101807.41;5044607;28;20068;-71
2021/11/17 13:13:11;;;;;;;17.92;7.78;;;;;;;5.22;92.38;101797.97;5050893;28;20100;-71
2021/11/17 13:16:24;;;;;;;15.88;7.65;;;;;;;5.16;92.21;101803.00;5042649;28;20598;-71
2021/11/17 13:18:59;;;;;;;17.52;8.52;;;;;;;5.23;92.23;101795.13;5048391;28;20561;-72
2021/11/17 13:21:31;;;;;;;17.25;8.63;;;;;;;5.33;91.53;101797.44;5051681;28;20033;-71
2021/11/17 13:23:56;;;;;;;18.13;8.77;;;;;;;5.28;91.50;101794.53;5039897;28;20044;-71
2021/11/17 13:27:04;;;;;;;15.05;7.80;;;;;;;5.16;91.37;101803.00;5049739;28;20194;-71
2021/11/17 13:29:45;;;;;;;16.48;8.50;;;;;;;5.26;91.99;101796.56;5034868;28;20041;-71
2021/11/17 13:32:14;;;;;;;23.60;8.32;;;;;;;5.26;92.13;101791.25;5046692;28;20039;-71
2021/11/17 13:34:48;;;;;;;14.80;7.80;;;;;;;5.27;91.94;101792.91;5047702;28;20029;-71
2021/11/17 13:37:34;;;;;;;15.68;7.32;;;;;;;5.28;91.83;101803.34;5043027;28;20021;-71
2021/11/17 13:40:06;;;;;;;13.98;7.57;;;;;;;5.26;91.96;101809.84;5048590;28;20029;-71
2021/11/17 13:42:33;;;;;;;14.98;7.65;;;;;;;5.26;92.50;101796.56;5055687;28;20484;-73
2021/11/17 13:45:00;;;;;;;16.75;8.50;;;;;;;5.06;92.79;101806.97;5046900;28;20032;-72
2021/11/17 13:47:29;;;;;;;17.30;8.85;;;;;;;5.07;92.97;101811.28;5040098;28;20077;-71
2021/11/17 13:49:56;;;;;;;14.98;8.52;;;;;;;5.19;93.41;101811.59;5043717;28;20029;-72
2021/11/17 13:52:31;;;;;;;17.58;9.52;;;;;;;5.13;93.66;101819.31;5044702;28;20068;-71
2021/11/17 13:54:57;;;;;;;19.42;9.40;;;;;;;5.12;93.44;101812.34;5041396;28;20028;-71
2021/11/17 13:57:23;;;;;;;17.02;9.27;;;;;;;5.21;93.39;101817.56;5051453;28;20502;-71
2021/11/17 13:59:49;;;;;;;19.17;9.75;;;;;;;5.14;93.66;101806.84;5037523;28;20032;-71
2021/11/17 14:02:15;;;;;;;18.45;10.07;;;;;;;5.14;94.06;101805.00;5051144;28;20445;-71
2021/11/17 14:04:41;;;;;;;19.10;9.60;;;;;;;5.07;93.89;101813.94;5042144;28;20757;-71
2021/11/17 14:07:07;;;;;;;20.20;9.55;;;;;;;5.04;94.86;101812.47;5056065;28;20024;-71
2021/11/17 14:09:33;;;;;;;22.33;10.85;;;;;;;4.95;94.95;101812.75;5043543;28;20021;-71
2021/11/17 14:11:59;;;;;;;18.98;10.27;;;;;;;5.00;95.57;101805.03;5044129;28;20497;-73
2021/11/17 14:14:25;;;;;;;22.40;11.02;;;;;;;4.99;95.49;101793.59;5044070;28;20498;-72
2021/11/17 14:16:51;;;;;;;20.77;10.63;;;;;;;5.07;95.27;101801.47;5047377;28;20123;-71
2021/11/17 14:19:16;;;;;;;22.40;11.55;;;;;;;5.05;95.69;101806.16;5040764;28;20137;-71
2021/11/17 14:21:42;;;;;;;23.17;11.68;;;;;;;5.03;96.11;101794.06;5044539;28;20044;-70
2021/11/17 14:24:10;;;;;;;23.83;11.82;;;;;;;5.05;96.04;101795.53;5039245;28;20038;-71
2021/11/17 14:26:38;;;;;;;24.33;11.75;;;;;;;5.03;96.18;101797.53;5037947;28;20092;-72
2021/11/17 14:29:36;;;;;;;20.77;11.10;;;;;;;4.92;96.15;101797.19;5045309;28;20033;-71
2021/11/17 14:32:07;;;;;;;27.30;12.93;;;;;;;5.02;96.28;101795.03;5044885;28;20045;-71